Northford, Connecticut
Current Conditions -  °F | °C
As of 6:53 PM on Sunday 23 Nov 2014 (Local Time) from KMMK Reporting Station
Clear Clear  
Wind Chill: 40°   Ceiling: Unl
Heat Index: 40°   Visibility: 10mi
Dew Point: 29°   Wind: 3mph
Humidity: 65%   Direction: 140°SE
Pressure: 30.14"   Gusts: NA
Location:  41.39°N, 72.79°W
Report Text: KMMK 232353Z AUTO 14003KT 10SM CLR 04/M02 A3014 RMK AO2 SLP206 T00441017 10133 20033 50001 TSNO $
Loading
Personal Weather Stations






























Interactive Weather Map New forecast layout! Learn more

10-Day Weather Forecast

Advertisements
Track Severe Weather on mobile